Time;durP1;ratioP1;P1;durP2;ratioP2;P2;SDS_P1;SDS_P2;PMS_P1;PMS_P2;Temp;Humidity;BMP_temperature;BMP_pressure;BME280_temperature;BME280_humidity;BME280_pressure;Samples;Min_cycle;Max_cycle;Signal;HPM_P1;HPM_P2
2023/09/01 00:00:43;;;;;;;;;;;;;;;13.80;99.50;101127.66;5023519;28;19906;-59
2023/09/01 00:03:09;;;;;;;;;;;;;;;13.82;99.46;101128.56;5024590;28;19901;-59
2023/09/01 00:05:34;;;;;;;;;;;;;;;13.80;99.34;101118.06;5019638;28;20139;-59
2023/09/01 00:07:59;;;;;;;;;;;;;;;13.78;99.46;101118.91;5010455;28;20354;-59
2023/09/01 00:10:25;;;;;;;;;;;;;;;13.74;99.56;101118.88;5024067;28;19910;-59
2023/09/01 00:12:50;;;;;;;;;;;;;;;13.73;99.64;101103.13;5025234;28;20118;-59
2023/09/01 00:15:15;;;;;;;;;;;;;;;13.73;99.63;101109.22;5021747;28;19943;-59
2023/09/01 00:17:40;;;;;;;;;;;;;;;13.71;99.47;101103.06;5023931;28;19905;-59
2023/09/01 00:20:06;;;;;;;;;;;;;;;13.71;99.56;101108.31;5023476;28;19902;-60
2023/09/01 00:22:31;;;;;;;;;;;;;;;13.69;99.63;101109.16;5034852;28;19905;-59
2023/09/01 00:24:56;;;;;;;;;;;;;;;13.65;99.51;101110.84;5026373;28;19944;-59
2023/09/01 00:27:21;;;;;;;;;;;;;;;13.63;99.63;101112.56;5024200;28;19933;-59
2023/09/01 00:29:46;;;;;;;;;;;;;;;13.62;99.54;101108.19;5024362;28;19901;-59
2023/09/01 00:32:12;;;;;;;;;;;;;;;13.60;99.56;101102.06;5024290;28;20063;-59
2023/09/01 00:34:37;;;;;;;;;;;;;;;13.58;99.61;101098.53;5022978;28;19972;-59
2023/09/01 00:37:03;;;;;;;;;;;;;;;13.59;99.99;101097.66;5022794;28;19905;-59
2023/09/01 00:39:28;;;;;;;;;;;;;;;13.56;100.00;101101.13;5023400;28;19929;-59
2023/09/01 00:41:53;;;;;;;;;;;;;;;13.55;100.00;101099.34;5024245;28;19909;-59
2023/09/01 00:44:18;;;;;;;;;;;;;;;13.55;100.00;101098.47;5021632;28;19909;-59
2023/09/01 00:46:46;;;;;;;;;;;;;;;13.53;99.74;101095.84;5022627;28;19971;-59
2023/09/01 00:49:11;;;;;;;;;;;;;;;13.51;100.00;101087.09;5020652;28;19965;-59
2023/09/01 00:51:37;;;;;;;;;;;;;;;13.49;100.00;101080.94;5022515;28;19909;-59
2023/09/01 00:54:02;;;;;;;;;;;;;;;13.47;100.00;101079.13;5019844;28;19906;-58
2023/09/01 00:56:28;;;;;;;;;;;;;;;13.46;100.00;101082.63;5019720;28;20167;-59
2023/09/01 00:58:53;;;;;;;;;;;;;;;13.46;100.00;101078.28;5023311;28;19906;-59
2023/09/01 01:01:18;;;;;;;;;;;;;;;13.47;100.00;101087.91;5024100;28;19981;-59
2023/09/01 01:03:43;;;;;;;;;;;;;;;13.46;100.00;101074.78;5023565;28;19924;-59
2023/09/01 01:06:29;;;;;;;;;;;;;;;13.45;100.00;101088.72;5020237;28;19902;-59
2023/09/01 01:09:00;;;;;;;;;;;;;;;13.41;100.00;101086.91;5019095;28;20098;-59
2023/09/01 01:11:51;;;;;;;;;;;;;;;13.41;100.00;101105.22;5024830;28;19917;-59
2023/09/01 01:14:25;;;;;;;;;;;;;;;13.41;100.00;101097.38;5028597;28;19925;-59
2023/09/01 01:16:51;;;;;;;;;;;;;;;13.40;100.00;101093.88;5027743;28;20238;-59
2023/09/01 01:19:37;;;;;;;;;;;;;;;13.42;100.00;101099.16;5027082;28;19910;-59
2023/09/01 01:22:04;;;;;;;;;;;;;;;13.42;100.00;101107.00;5038096;28;19927;-59
2023/09/01 01:24:29;;;;;;;;;;;;;;;13.41;100.00;101090.41;5025690;28;19952;-59
2023/09/01 01:26:54;;;;;;;;;;;;;;;13.42;100.00;101091.28;5030059;28;19937;-59
2023/09/01 01:29:19;;;;;;;;;;;;;;;13.43;100.00;101093.94;5024422;28;20126;-59
2023/09/01 01:31:45;;;;;;;;;;;;;;;13.43;100.00;101093.06;5026193;28;19909;-59
2023/09/01 01:34:10;;;;;;;;;;;;;;;13.39;100.00;101087.75;5025522;28;19910;-59
2023/09/01 01:36:45;;;;;;;;;;;;;;;13.39;100.00;101087.75;5030748;28;20009;-59
2023/09/01 01:39:15;;;;;;;;;;;;;;;13.35;100.00;101091.22;5031255;28;19976;-59
2023/09/01 01:41:45;;;;;;;;;;;;;;;13.34;100.00;101099.00;5038422;28;19968;-59
2023/09/01 01:44:11;;;;;;;;;;;;;;;13.33;100.00;101100.72;5026226;28;19906;-59
2023/09/01 01:46:38;;;;;;;;;;;;;;;13.33;100.00;101103.34;5026408;28;19908;-59
2023/09/01 01:49:14;;;;;;;;;;;;;;;13.32;100.00;101105.94;5027292;28;19901;-58
2023/09/01 01:51:39;;;;;;;;;;;;;;;13.35;100.00;101116.47;5027387;28;19909;-59
2023/09/01 01:54:05;;;;;;;;;;;;;;;13.35;100.00;101116.47;5027026;28;19901;-59
2023/09/01 01:56:30;;;;;;;;;;;;;;;13.37;100.00;101113.03;5027570;28;19902;-59
2023/09/01 01:58:55;;;;;;;;;;;;;;;13.37;100.00;101113.03;5024766;28;19913;-59
2023/09/01 02:01:20;;;;;;;;;;;;;;;13.39;100.00;101106.06;5026812;28;19894;-59
2023/09/01 02:03:46;;;;;;;;;;;;;;;13.40;100.00;101093.88;5025968;28;19901;-59
2023/09/01 02:06:11;;;;;;;;;;;;;;;13.38;100.00;101090.34;5025109;28;19944;-59
2023/09/01 02:08:37;;;;;;;;;;;;;;;13.39;100.00;101094.75;5026807;28;19906;-59
2023/09/01 02:11:02;;;;;;;;;;;;;;;13.38;100.00;101093.88;5026137;28;19932;-59
2023/09/01 02:13:28;;;;;;;;;;;;;;;13.37;100.00;101089.47;5025573;28;19916;-59
2023/09/01 02:15:54;;;;;;;;;;;;;;;13.36;100.00;101082.47;5025454;28;19914;-59
2023/09/01 02:18:19;;;;;;;;;;;;;;;13.36;100.00;101082.47;5025818;28;19905;-59
2023/09/01 02:20:44;;;;;;;;;;;;;;;13.34;100.00;101089.44;5028212;28;20143;-59
2023/09/01 02:23:09;;;;;;;;;;;;;;;13.35;100.00;101087.69;5034178;28;19909;-59
2023/09/01 02:25:35;;;;;;;;;;;;;;;13.35;100.00;101095.53;5026024;28;19906;-59
2023/09/01 02:28:04;;;;;;;;;;;;;;;13.33;100.00;101092.88;5026173;28;20091;-59
2023/09/01 02:30:29;;;;;;;;;;;;;;;13.34;100.00;101089.44;5016618;28;19936;-59
2023/09/01 02:32:54;;;;;;;;;;;;;;;13.34;100.00;101084.19;5026067;28;19910;-59
2023/09/01 02:35:19;;;;;;;;;;;;;;;13.37;100.00;101088.59;5025155;28;19906;-59
2023/09/01 02:37:44;;;;;;;;;;;;;;;13.37;100.00;101079.00;5021342;28;20056;-59
2023/09/01 02:40:12;;;;;;;;;;;;;;;13.37;100.00;101078.13;5027087;28;19940;-59
2023/09/01 02:42:41;;;;;;;;;;;;;;;13.38;100.00;101074.66;5013196;28;19908;-59
2023/09/01 02:45:07;;;;;;;;;;;;;;;13.37;100.00;101072.91;5026825;28;20112;-59
2023/09/01 02:47:32;;;;;;;;;;;;;;;13.36;100.00;101068.53;5024882;28;19955;-59
2023/09/01 02:49:57;;;;;;;;;;;;;;;13.34;100.00;101062.38;5025938;28;19906;-59
2023/09/01 02:52:23;;;;;;;;;;;;;;;13.32;100.00;101064.06;5012333;28;19906;-58
2023/09/01 02:54:48;;;;;;;;;;;;;;;13.30;100.00;101071.88;5025130;28;19909;-59
2023/09/01 02:57:13;;;;;;;;;;;;;;;13.29;100.00;101071.84;5025733;28;20131;-60
2023/09/01 02:59:38;;;;;;;;;;;;;;;13.27;100.00;101074.47;5024606;28;19952;-59
2023/09/01 03:02:03;;;;;;;;;;;;;;;13.27;100.00;101073.59;5023767;28;19905;-59
2023/09/01 03:04:30;;;;;;;;;;;;;;;13.26;100.00;101075.31;5024961;28;19925;-59
2023/09/01 03:06:56;;;;;;;;;;;;;;;13.26;100.00;101083.16;5024490;28;20140;-59
2023/09/01 03:09:22;;;;;;;;;;;;;;;13.25;100.00;101076.16;5025047;28;19937;-59
2023/09/01 03:11:47;;;;;;;;;;;;;;;13.27;100.00;101069.22;5024356;28;20895;-59
2023/09/01 03:14:12;;;;;;;;;;;;;;;13.27;100.00;101069.22;5021036;28;19905;-59
2023/09/01 03:16:37;;;;;;;;;;;;;;;13.28;100.00;101070.09;5026476;28;20079;-59
2023/09/01 03:19:02;;;;;;;;;;;;;;;13.27;100.00;101070.97;5024979;28;19906;-59
2023/09/01 03:21:30;;;;;;;;;;;;;;;13.27;100.00;101065.72;5024179;28;20003;-59
2023/09/01 03:23:56;;;;;;;;;;;;;;;13.27;100.00;101066.59;5024807;28;19909;-59
2023/09/01 03:26:23;;;;;;;;;;;;;;;13.28;100.00;101071.00;5027118;28;19905;-59
2023/09/01 03:28:49;;;;;;;;;;;;;;;13.28;100.00;101065.75;5024732;28;20075;-59
2023/09/01 03:31:14;;;;;;;;;;;;;;;13.29;100.00;101070.13;5021839;28;19968;-59
2023/09/01 03:33:40;;;;;;;;;;;;;;;13.29;100.00;101070.13;5024129;28;19948;-59
2023/09/01 03:36:07;;;;;;;;;;;;;;;13.28;100.00;101068.38;5011593;28;20136;-59
2023/09/01 03:38:32;;;;;;;;;;;;;;;13.30;100.00;101057.94;5019990;28;19902;-59
2023/09/01 03:41:00;;;;;;;;;;;;;;;13.30;100.00;101058.78;5022242;28;19905;-59
2023/09/01 03:43:25;;;;;;;;;;;;;;;13.33;100.00;101057.97;5024825;28;19905;-59
2023/09/01 03:45:50;;;;;;;;;;;;;;;13.33;100.00;101047.50;5023939;28;19912;-59
2023/09/01 03:48:15;;;;;;;;;;;;;;;13.34;100.00;101051.88;5025074;28;19925;-59
2023/09/01 03:50:41;;;;;;;;;;;;;;;13.33;100.00;101058.84;5024231;28;19910;-59
2023/09/01 03:53:06;;;;;;;;;;;;;;;13.34;100.00;101063.25;5024759;28;19901;-59
2023/09/01 03:55:32;;;;;;;;;;;;;;;13.34;100.00;101058.03;5024688;28;19967;-59
2023/09/01 03:57:57;;;;;;;;;;;;;;;13.34;100.00;101044.94;5024650;28;19906;-59
2023/09/01 04:00:22;;;;;;;;;;;;;;;13.36;100.00;101051.06;5024677;28;19906;-59
2023/09/01 04:02:47;;;;;;;;;;;;;;;13.37;100.00;101044.97;5023839;28;19968;-59
2023/09/01 04:05:13;;;;;;;;;;;;;;;13.39;100.00;101047.63;5023661;28;19905;-59
2023/09/01 04:07:38;;;;;;;;;;;;;;;13.42;100.00;101044.19;5024766;28;19908;-59
2023/09/01 04:10:04;;;;;;;;;;;;;;;13.43;100.00;101048.56;5024088;28;20016;-59
2023/09/01 04:12:29;;;;;;;;;;;;;;;13.42;100.00;101036.34;5026187;28;19932;-59
2023/09/01 04:14:54;;;;;;;;;;;;;;;13.45;100.00;101046.84;5014321;28;19948;-59
2023/09/01 04:17:20;;;;;;;;;;;;;;;13.45;100.00;101050.31;5023026;28;19912;-59
2023/09/01 04:19:46;;;;;;;;;;;;;;;13.46;100.00;101044.25;5021535;28;20139;-59
2023/09/01 04:22:11;;;;;;;;;;;;;;;13.47;100.00;101037.25;5015099;28;19906;-59
2023/09/01 04:24:36;;;;;;;;;;;;;;;13.48;100.00;101042.50;5019026;28;19924;-59
2023/09/01 04:27:02;;;;;;;;;;;;;;;13.49;100.00;101041.66;5022663;28;20143;-59
2023/09/01 04:29:27;;;;;;;;;;;;;;;13.51;100.00;101036.44;5023868;28;19928;-59
2023/09/01 04:31:53;;;;;;;;;;;;;;;13.52;100.00;101040.84;5014311;28;19913;-59
2023/09/01 04:34:19;;;;;;;;;;;;;;;13.52;100.00;101036.47;5020440;28;19912;-59
2023/09/01 04:36:44;;;;;;;;;;;;;;;13.53;100.00;101037.38;5018247;28;19906;-59
2023/09/01 04:39:09;;;;;;;;;;;;;;;13.53;100.00;101043.47;5018312;28;20051;-59
2023/09/01 04:41:35;;;;;;;;;;;;;;;13.53;100.00;101040.00;5027834;28;19955;-59
2023/09/01 04:44:00;;;;;;;;;;;;;;;13.54;100.00;101037.41;5022595;28;19968;-59
2023/09/01 04:46:25;;;;;;;;;;;;;;;13.54;100.00;101036.50;5026615;28;20040;-59
2023/09/01 04:48:50;;;;;;;;;;;;;;;13.55;100.00;101046.13;5028871;28;19928;-59
2023/09/01 04:51:15;;;;;;;;;;;;;;;13.55;100.00;101040.88;5020840;28;19952;-59
2023/09/01 04:53:41;;;;;;;;;;;;;;;13.54;100.00;101044.34;5026928;28;19909;-59
2023/09/01 04:56:07;;;;;;;;;;;;;;;13.56;100.00;101047.88;5026857;28;19913;-59
2023/09/01 04:58:32;;;;;;;;;;;;;;;13.58;100.00;101051.38;5026953;28;19937;-59
2023/09/01 05:00:57;;;;;;;;;;;;;;;13.61;100.00;101053.19;5028299;28;20158;-59
2023/09/01 05:03:22;;;;;;;;;;;;;;;13.61;100.00;101043.56;5017544;28;19973;-59
2023/09/01 05:05:47;;;;;;;;;;;;;;;13.62;100.00;101047.09;5021616;28;19969;-59
2023/09/01 05:08:13;;;;;;;;;;;;;;;13.62;100.00;101042.72;5020320;28;20125;-59
2023/09/01 05:10:38;;;;;;;;;;;;;;;13.63;100.00;101038.34;5023715;28;19909;-59
2023/09/01 05:13:03;;;;;;;;;;;;;;;13.63;100.00;101046.22;5029091;28;19909;-59
2023/09/01 05:15:30;;;;;;;;;;;;;;;13.62;100.00;101047.09;5027207;28;20158;-59
2023/09/01 05:17:55;;;;;;;;;;;;;;;13.64;100.00;101043.63;5027177;28;20139;-59
2023/09/01 05:20:20;;;;;;;;;;;;;;;13.66;100.00;101048.91;5037159;28;19913;-59
2023/09/01 05:22:46;;;;;;;;;;;;;;;13.66;100.00;101044.53;5027537;28;19909;-59
2023/09/01 05:25:11;;;;;;;;;;;;;;;13.69;100.00;101044.56;5027194;28;19906;-59
2023/09/01 05:27:36;;;;;;;;;;;;;;;13.71;100.00;101040.22;5026292;28;20095;-59
2023/09/01 05:30:01;;;;;;;;;;;;;;;13.73;100.00;101040.28;5026978;28;19916;-59
2023/09/01 05:32:29;;;;;;;;;;;;;;;13.74;100.00;101048.16;5026683;28;19906;-59
2023/09/01 05:34:54;;;;;;;;;;;;;;;13.78;100.00;101050.81;5027875;28;19912;-59
2023/09/01 05:37:19;;;;;;;;;;;;;;;13.81;100.00;101056.09;5027173;28;19905;-60
2023/09/01 05:39:44;;;;;;;;;;;;;;;13.82;100.00;101055.22;5026922;28;19913;-59
2023/09/01 05:42:10;;;;;;;;;;;;;;;13.85;100.00;101068.38;5037161;28;19905;-59
2023/09/01 05:44:35;;;;;;;;;;;;;;;13.86;100.00;101054.38;5023341;28;20186;-59
2023/09/01 05:47:03;;;;;;;;;;;;;;;13.88;100.00;101055.31;5026517;28;19902;-59
2023/09/01 05:49:29;;;;;;;;;;;;;;;13.85;100.00;101050.91;5027119;28;20166;-59
2023/09/01 05:51:54;;;;;;;;;;;;;;;13.87;100.00;101061.41;5026985;28;19905;-59
2023/09/01 05:54:19;;;;;;;;;;;;;;;13.91;100.00;101060.59;5026325;28;19909;-59
2023/09/01 05:56:45;;;;;;;;;;;;;;;13.91;100.00;101050.09;5027101;28;20135;-59
2023/09/01 05:59:10;;;;;;;;;;;;;;;13.92;100.00;101044.03;5026435;28;19913;-59
2023/09/01 06:01:36;;;;;;;;;;;;;;;13.95;100.00;101046.66;5014745;28;19941;-59
2023/09/01 06:04:04;;;;;;;;;;;;;;;13.97;100.00;101044.94;5026341;28;19939;-59
2023/09/01 06:06:31;;;;;;;;;;;;;;;14.00;100.00;101047.59;5028161;28;19912;-59
2023/09/01 06:08:56;;;;;;;;;;;;;;;14.04;100.00;101045.91;5027086;28;20042;-59
2023/09/01 06:11:22;;;;;;;;;;;;;;;14.07;100.00;101051.19;5025391;28;19910;-59
2023/09/01 06:13:49;;;;;;;;;;;;;;;14.08;100.00;101053.81;5025555;28;20169;-59
2023/09/01 06:16:14;;;;;;;;;;;;;;;14.09;100.00;101050.34;5030117;28;19908;-59
2023/09/01 06:18:39;;;;;;;;;;;;;;;14.11;100.00;101050.38;5029215;28;20128;-60
2023/09/01 06:21:04;;;;;;;;;;;;;;;14.11;100.00;101054.72;5036416;28;19902;-59
2023/09/01 06:23:29;;;;;;;;;;;;;;;14.13;100.00;101058.25;5024793;28;19913;-59
2023/09/01 06:25:55;;;;;;;;;;;;;;;14.15;100.00;101056.50;5025820;28;19905;-59
2023/09/01 06:28:20;;;;;;;;;;;;;;;14.18;100.00;101067.03;5025625;28;19906;-59
2023/09/01 06:30:45;;;;;;;;;;;;;;;14.19;100.00;101064.44;5025583;28;19910;-59
2023/09/01 06:33:10;;;;;;;;;;;;;;;14.20;100.00;101071.44;5026084;28;19912;-59
2023/09/01 06:35:36;;;;;;;;;;;;;;;14.25;100.00;101079.34;5023670;28;19928;-58
2023/09/01 06:38:05;;;;;;;;;;;;;;;14.27;100.00;101070.66;5023255;28;20204;-59
2023/09/01 06:40:30;;;;;;;;;;;;;;;14.29;100.00;101068.03;5024337;28;20091;-59
2023/09/01 06:42:56;;;;;;;;;;;;;;;14.32;100.00;101072.44;5029323;28;20139;-59
2023/09/01 06:45:21;;;;;;;;;;;;;;;14.32;100.00;101073.31;5026186;28;20197;-58
2023/09/01 06:47:46;;;;;;;;;;;;;;;14.33;100.00;101069.84;5025903;28;19913;-59
2023/09/01 06:50:12;;;;;;;;;;;;;;;14.33;100.00;101072.47;5020078;28;19972;-59
2023/09/01 06:52:37;;;;;;;;;;;;;;;14.36;100.00;101069.88;5024881;28;19905;-59
2023/09/01 06:55:02;;;;;;;;;;;;;;;14.38;100.00;101070.78;5025590;28;19906;-59
2023/09/01 06:57:28;;;;;;;;;;;;;;;14.41;100.00;101068.19;5023515;28;20147;-59
2023/09/01 06:59:53;;;;;;;;;;;;;;;14.42;100.00;101080.44;5021779;28;19936;-58
2023/09/01 07:02:18;;;;;;;;;;;;;;;14.43;100.00;101063.84;5025631;28;19905;-59
2023/09/01 07:04:43;;;;;;;;;;;;;;;14.44;100.00;101068.22;5023241;28;19905;-59
2023/09/01 07:07:08;;;;;;;;;;;;;;;14.45;100.00;101053.38;5021551;28;19905;-59
2023/09/01 07:09:33;;;;;;;;;;;;;;;14.46;100.00;101046.41;5010727;28;19913;-59
2023/09/01 07:11:59;;;;;;;;;;;;;;;14.49;100.00;101054.28;5018384;28;19994;-59
2023/09/01 07:14:24;;;;;;;;;;;;;;;14.50;100.00;101051.69;5022124;28;20217;-60
2023/09/01 07:16:49;;;;;;;;;;;;;;;14.54;100.00;101049.97;5017083;28;20081;-59
2023/09/01 07:19:14;;;;;;;;;;;;;;;14.56;100.00;101050.88;5024250;28;19973;-60
2023/09/01 07:21:39;;;;;;;;;;;;;;;14.58;100.00;101049.13;5024469;28;19944;-59
2023/09/01 07:24:05;;;;;;;;;;;;;;;14.61;100.00;101054.41;5018638;28;19980;-59
2023/09/01 07:26:30;;;;;;;;;;;;;;;14.62;100.00;101050.97;5023800;28;19940;-59
2023/09/01 07:28:55;;;;;;;;;;;;;;;14.63;100.00;101047.47;5024804;28;19906;-60
2023/09/01 07:31:20;;;;;;;;;;;;;;;14.64;100.00;101049.22;5024094;28;20127;-60
2023/09/01 07:33:45;;;;;;;;;;;;;;;14.66;100.00;101052.75;5018068;28;19917;-59
2023/09/01 07:36:11;;;;;;;;;;;;;;;14.68;100.00;101050.16;5009049;28;20160;-59
2023/09/01 07:38:37;;;;;;;;;;;;;;;14.70;100.00;101049.31;5018147;28;19905;-60
2023/09/01 07:41:03;;;;;;;;;;;;;;;14.71;100.00;101045.78;5022074;28;19924;-59
2023/09/01 07:43:28;;;;;;;;;;;;;;;14.71;100.00;101040.56;5026692;28;20183;-60
2023/09/01 07:45:53;;;;;;;;;;;;;;;14.72;100.00;101039.69;5028347;28;19912;-60
2023/09/01 07:48:18;;;;;;;;;;;;;;;14.72;100.00;101037.06;5027946;28;19901;-60
2023/09/01 07:50:44;;;;;;;;;;;;;;;14.74;100.00;101045.84;5024757;28;19916;-60
2023/09/01 07:53:10;;;;;;;;;;;;;;;14.76;100.00;101048.50;5022913;28;19920;-60
2023/09/01 07:55:35;;;;;;;;;;;;;;;14.77;100.00;101045.88;5024677;28;19905;-60
2023/09/01 07:58:00;;;;;;;;;;;;;;;14.78;100.00;101052.00;5025136;28;19992;-60
2023/09/01 08:00:25;;;;;;;;;;;;;;;14.78;100.00;101046.75;5027041;28;20162;-60
2023/09/01 08:02:50;;;;;;;;;;;;;;;14.78;100.00;101052.88;5022946;28;19912;-60
2023/09/01 08:05:16;;;;;;;;;;;;;;;14.81;100.00;101056.41;5024864;28;19925;-60
2023/09/01 08:07:41;;;;;;;;;;;;;;;14.82;100.00;101058.16;5032399;28;19913;-60
2023/09/01 08:10:09;;;;;;;;;;;;;;;14.83;100.00;101063.44;5021434;28;19913;-60
2023/09/01 08:12:34;;;;;;;;;;;;;;;14.84;100.00;101061.66;5027678;28;19916;-61
2023/09/01 08:14:59;;;;;;;;;;;;;;;14.86;100.00;101065.16;5028928;28;19905;-61
2023/09/01 08:17:24;;;;;;;;;;;;;;;14.87;100.00;101080.06;5024226;28;19932;-61
2023/09/01 08:19:50;;;;;;;;;;;;;;;14.88;100.00;101077.44;5012881;28;20147;-61
2023/09/01 08:22:16;;;;;;;;;;;;;;;14.91;100.00;101076.59;5013116;28;20396;-61
2023/09/01 08:24:41;;;;;;;;;;;;;;;14.94;100.00;101084.50;5011749;28;20045;-61
2023/09/01 08:27:06;;;;;;;;;;;;;;;14.95;100.00;101083.66;5014977;28;19928;-61
2023/09/01 08:29:31;;;;;;;;;;;;;;;14.97;100.00;101074.03;5013637;28;20170;-61
2023/09/01 08:31:57;;;;;;;;;;;;;;;14.97;100.00;101075.78;5014486;28;20280;-61
2023/09/01 08:34:22;;;;;;;;;;;;;;;14.96;100.00;101077.50;5014934;28;19906;-61
2023/09/01 08:36:48;;;;;;;;;;;;;;;14.99;100.00;101089.78;5016389;28;19918;-61
2023/09/01 08:39:13;;;;;;;;;;;;;;;15.01;100.00;101088.06;5015188;28;20088;-62
2023/09/01 08:41:39;;;;;;;;;;;;;;;15.02;100.00;101088.09;5023168;28;19980;-62
2023/09/01 08:44:06;;;;;;;;;;;;;;;15.03;100.00;101092.44;5013924;28;19905;-62
2023/09/01 08:46:31;;;;;;;;;;;;;;;15.03;100.00;101100.31;5011497;28;19913;-62
2023/09/01 08:48:57;;;;;;;;;;;;;;;15.06;100.00;101099.47;5022921;28;19918;-62
2023/09/01 08:51:24;;;;;;;;;;;;;;;15.08;100.00;101103.00;5021631;28;19914;-62
2023/09/01 08:53:49;;;;;;;;;;;;;;;15.12;100.00;101112.69;5013909;28;19937;-62
2023/09/01 08:56:15;;;;;;;;;;;;;;;15.13;100.00;101115.31;5008478;28;19901;-62
2023/09/01 08:58:40;;;;;;;;;;;;;;;15.15;100.00;101110.06;5005175;28;19944;-62
2023/09/01 09:01:05;;;;;;;;;;;;;;;15.15;100.00;101111.81;5017795;28;19906;-62
2023/09/01 09:03:32;;;;;;;;;;;;;;;15.15;100.00;101109.19;5010018;28;19901;-62
2023/09/01 09:05:58;;;;;;;;;;;;;;;15.15;100.00;101103.94;5022321;28;19906;-63
2023/09/01 09:08:23;;;;;;;;;;;;;;;15.16;100.00;101108.31;5018573;28;20214;-62
2023/09/01 09:10:48;;;;;;;;;;;;;;;15.16;100.00;101105.69;5046036;22;19906;-62
2023/09/01 09:13:20;;;;;;;;;;;;;;;15.17;100.00;101112.72;4991647;28;19918;-62
2023/09/01 09:15:45;;;;;;;;;;;;;;;15.15;100.00;101111.81;5001849;28;19930;-63
2023/09/01 09:18:10;;;;;;;;;;;;;;;15.11;100.00;101109.16;5002667;28;19961;-63
2023/09/01 09:20:36;;;;;;;;;;;;;;;15.10;100.00;101107.38;4997810;28;19922;-63
2023/09/01 09:23:02;;;;;;;;;;;;;;;15.12;100.00;101112.69;4996073;28;19998;-63
2023/09/01 09:25:30;;;;;;;;;;;;;;;15.13;100.00;101104.81;5007402;28;20199;-63
2023/09/01 09:27:57;;;;;;;;;;;;;;;15.15;100.00;101114.44;5000299;28;19918;-63
2023/09/01 09:30:25;;;;;;;;;;;;;;;15.17;100.00;101117.97;5005582;28;19914;-63
2023/09/01 09:33:04;;;;;;;;;;;;;;;15.19;100.00;101116.22;5004101;28;19917;-63
2023/09/01 09:35:29;;;;;;;;;;;;;;;15.22;100.00;101124.13;5004950;28;20045;-63
2023/09/01 09:37:58;;;;;;;;;;;;;;;15.20;100.00;101124.09;5003374;28;20164;-63
2023/09/01 09:40:23;;;;;;;;;;;;;;;15.24;100.00;101132.91;5005063;28;19957;-63
2023/09/01 09:42:48;;;;;;;;;;;;;;;15.26;100.00;101133.78;5005556;28;19921;-63
2023/09/01 09:45:32;;;;;;;;;;;;;;;15.30;100.00;101141.69;5007414;28;19917;-63
2023/09/01 09:47:58;;;;;;;;;;;;;;;15.34;100.00;101126.88;5005262;28;19992;-63
2023/09/01 09:50:24;;;;;;;;;;;;;;;15.36;100.00;101124.25;5006460;28;19976;-63
2023/09/01 09:52:54;;;;;;;;;;;;;;;15.37;100.00;101132.13;5006499;28;19910;-63
2023/09/01 09:55:24;;;;;;;;;;;;;;;15.39;100.00;101125.13;5006370;28;19933;-63
2023/09/01 09:57:50;;;;;;;;;;;;;;;15.42;100.00;101119.91;5006697;28;19993;-63
2023/09/01 10:00:18;;;;;;;;;;;;;;;15.46;100.00;101120.81;5005285;28;19916;-62
2023/09/01 10:02:47;;;;;;;;;;;;;;;15.50;100.00;101113.84;5004117;28;19914;-63
2023/09/01 10:05:15;;;;;;;;;;;;;;;15.52;100.00;101110.34;5004493;28;19989;-63
2023/09/01 10:07:40;;;;;;;;;;;;;;;15.55;100.00;101118.25;5005359;28;19940;-62
2023/09/01 10:10:06;;;;;;;;;;;;;;;15.55;100.00;101118.25;5004487;28;20148;-62
2023/09/01 10:12:31;;;;;;;;;;;;;;;15.56;100.00;101113.91;5003650;28;20151;-63
2023/09/01 10:14:57;;;;;;;;;;;;;;;15.58;100.00;101106.91;5004561;28;19936;-63
2023/09/01 10:17:23;;;;;;;;;;;;;;;15.60;100.00;101110.44;5005392;28;19914;-63
2023/09/01 10:19:48;;;;;;;;;;;;;;;15.63;100.00;101107.81;5005404;28;19975;-62
2023/09/01 10:22:17;;;;;;;;;;;;;;;15.64;100.00;101110.47;5002956;28;20003;-62
2023/09/01 10:25:06;;;;;;;;;;;;;;;15.67;100.00;101108.72;5001760;28;19941;-62
2023/09/01 10:27:31;;;;;;;;;;;;;;;15.69;100.00;101110.50;4995680;28;19933;-62
2023/09/01 10:29:56;;;;;;;;;;;;;;;15.68;100.00;101108.72;5004355;28;19914;-62
2023/09/01 10:32:21;;;;;;;;;;;;;;;15.64;100.00;101112.19;5004094;28;19933;-62
2023/09/01 10:34:54;;;;;;;;;;;;;;;15.67;100.00;101111.34;4994878;28;19920;-62
2023/09/01 10:37:26;;;;;;;;;;;;;;;15.70;100.00;101109.63;4997108;28;20222;-62
2023/09/01 10:39:51;;;;;;;;;;;;;;;15.70;100.00;101117.50;4998730;28;19948;-62
2023/09/01 10:42:16;;;;;;;;;;;;;;;15.75;100.00;101121.03;4992318;28;20060;-62
2023/09/01 10:44:44;;;;;;;;;;;;;;;15.80;100.00;101121.09;4997010;28;19916;-62
2023/09/01 10:47:28;;;;;;;;;;;;;;;15.85;100.00;101121.13;4998282;28;19910;-62
2023/09/01 10:49:54;;;;;;;;;;;;;;;15.89;100.00;101131.69;5004145;28;19914;-62
2023/09/01 10:52:20;;;;;;;;;;;;;;;15.92;100.00;101133.44;5000644;28;19960;-62
2023/09/01 10:54:45;;;;;;;;;;;;;;;15.97;100.00;101139.59;5000783;28;19914;-62
2023/09/01 10:57:11;;;;;;;;;;;;;;;15.96;100.00;101132.56;5013095;28;19923;-62
2023/09/01 10:59:36;;;;;;;;;;;;;;;16.02;100.00;101132.63;5001651;28;19964;-62
2023/09/01 11:02:18;;;;;;;;;;;;;;;16.07;100.00;101141.41;4995221;28;19914;-62
2023/09/01 11:04:47;;;;;;;;;;;;;;;16.11;100.00;101122.16;5001766;28;19975;-62
2023/09/01 11:07:13;;;;;;;;;;;;;;;16.15;100.00;101129.19;5001534;28;20040;-62
2023/09/01 11:09:42;;;;;;;;;;;;;;;16.20;100.00;101120.44;5002426;28;19920;-62
2023/09/01 11:12:08;;;;;;;;;;;;;;;16.24;100.00;101127.50;5002094;28;19918;-62
2023/09/01 11:14:34;;;;;;;;;;;;;;;16.27;100.00;101122.25;5003120;28;19955;-62
2023/09/01 11:17:03;;;;;;;;;;;;;;;16.31;100.00;101130.16;4999585;28;19973;-62
2023/09/01 11:19:32;;;;;;;;;;;;;;;16.36;100.00;101122.25;5001093;28;19977;-62
2023/09/01 11:22:01;;;;;;;;;;;;;;;16.38;100.00;101125.81;5001328;28;19918;-62
2023/09/01 11:24:26;;;;;;;;;;;;;;;16.44;100.00;101132.84;4999666;28;20052;-62
2023/09/01 11:26:51;;;;;;;;;;;;;;;16.49;100.00;101123.19;5002723;28;20135;-62
2023/09/01 11:29:18;;;;;;;;;;;;;;;16.52;100.00;101131.09;5002478;28;19913;-62
2023/09/01 11:31:44;;;;;;;;;;;;;;;16.58;100.00;101127.63;5000996;28;19929;-62
2023/09/01 11:34:09;;;;;;;;;;;;;;;16.61;100.00;101132.88;5003856;28;19930;-62
2023/09/01 11:36:43;;;;;;;;;;;;;;;16.63;100.00;101137.28;5003006;28;20114;-62
2023/09/01 11:39:08;;;;;;;;;;;;;;;16.68;100.00;101140.81;5001986;28;19916;-61
2023/09/01 11:41:34;;;;;;;;;;;;;;;16.75;100.00;101141.69;5003745;28;19926;-62
2023/09/01 11:43:59;;;;;;;;;;;;;;;16.78;100.00;101146.97;5002680;28;20071;-62
2023/09/01 11:46:34;;;;;;;;;;;;;;;16.86;100.00;101150.50;5002935;28;19914;-62
2023/09/01 11:49:00;;;;;;;;;;;;;;;16.94;100.00;101144.41;5017201;28;20182;-62
2023/09/01 11:51:37;;;;;;;;;;;;;;;16.99;100.00;101147.94;5000400;28;19914;-62
2023/09/01 11:54:03;;;;;;;;;;;;;;;17.12;100.00;101151.44;5001375;28;20045;-62
2023/09/01 11:56:28;;;;;;;;;;;;;;;17.23;100.00;101157.63;5004305;28;19921;-62
2023/09/01 11:58:55;;;;;;;;;;;;;;;17.37;100.00;101157.63;5003073;28;19926;-62
2023/09/01 12:01:21;;;;;;;;;;;;;;;17.47;100.00;101172.56;5003254;28;20994;-62
2023/09/01 12:03:46;;;;;;;;;;;;;;;17.61;100.00;101171.69;5001495;28;19921;-62
2023/09/01 12:06:15;;;;;;;;;;;;;;;17.64;100.00;101175.22;4998670;28;19914;-62
2023/09/01 12:08:41;;;;;;;;;;;;;;;17.64;100.00;101183.13;5001882;28;19972;-61
2023/09/01 12:11:06;;;;;;;;;;;;;;;17.65;100.00;101182.22;5001553;28;20219;-62
2023/09/01 12:13:31;;;;;;;;;;;;;;;17.71;100.00;101179.59;5002421;28;19913;-62
2023/09/01 12:16:01;;;;;;;;;;;;;;;17.75;100.00;101184.88;4997784;28;19981;-61
2023/09/01 12:18:26;;;;;;;;;;;;;;;17.80;100.00;101183.09;4995043;28;19927;-62
2023/09/01 12:20:51;;;;;;;;;;;;;;;17.89;100.00;101186.59;4999105;28;19937;-62
2023/09/01 12:23:27;;;;;;;;;;;;;;;18.01;100.00;101184.88;4991946;28;19952;-62